createdAt,value
2023-03-01T00:02:33.326Z,99342.63
2023-03-01T00:05:35.912Z,99338.66
2023-03-01T00:08:38.842Z,99343.16
2023-03-01T00:11:41.783Z,99350.81
2023-03-01T00:14:44.388Z,99343.59
2023-03-01T00:17:48.354Z,99341.72
2023-03-01T00:20:52.604Z,99336.22
2023-03-01T00:23:55.943Z,99349.25
2023-03-01T00:26:58.586Z,99343.88
2023-03-01T00:30:01.644Z,99346.78
2023-03-01T00:33:05.938Z,99350.72
2023-03-01T00:36:08.998Z,99352.75
2023-03-01T00:39:13.877Z,99341.88
2023-03-01T00:42:17.057Z,99338.25
2023-03-01T00:45:19.902Z,99338.94
2023-03-01T00:48:24.130Z,99338.28
2023-03-01T00:51:29.079Z,99340.00
2023-03-01T00:54:31.821Z,99340.69
2023-03-01T00:57:34.556Z,99337.84
2023-03-01T01:00:37.745Z,99339.94
2023-03-01T01:03:41.692Z,99339.16
2023-03-01T01:06:46.158Z,99331.13
2023-03-01T01:09:48.834Z,99331.69
2023-03-01T01:12:51.723Z,99329.97
2023-03-01T01:15:54.355Z,99324.22
2023-03-01T01:18:58.928Z,99323.72
2023-03-01T01:22:01.499Z,99326.56
2023-03-01T01:25:04.635Z,99328.34
2023-03-01T01:28:07.246Z,99325.88
2023-03-01T01:31:09.983Z,99313.34
2023-03-01T01:34:18.303Z,99316.72
2023-03-01T01:37:21.073Z,99315.06
2023-03-01T01:40:23.676Z,99311.66
2023-03-01T01:43:28.584Z,99311.66
2023-03-01T01:46:34.105Z,99300.03
2023-03-01T01:49:40.407Z,99299.13
2023-03-01T01:52:43.134Z,99293.72
2023-03-01T01:55:48.245Z,99296.63
2023-03-01T01:58:51.555Z,99297.50
2023-03-01T02:01:54.653Z,99296.94
2023-03-01T02:05:05.121Z,99295.53
2023-03-01T02:08:08.342Z,99290.28
2023-03-01T02:11:12.380Z,99281.41
2023-03-01T02:14:15.231Z,99273.78
2023-03-01T02:17:19.955Z,99270.03
2023-03-01T02:20:28.914Z,99268.63
2023-03-01T02:23:31.618Z,99265.47
2023-03-01T02:26:37.956Z,99265.09
2023-03-01T02:29:44.980Z,99259.34
2023-03-01T02:32:47.983Z,99258.28
2023-03-01T02:35:50.751Z,99258.25
2023-03-01T02:38:55.526Z,99250.09
2023-03-01T02:42:00.075Z,99248.06
2023-03-01T02:45:04.713Z,99246.97
2023-03-01T02:48:07.624Z,99241.13
2023-03-01T02:51:15.365Z,99241.06
2023-03-01T02:54:24.916Z,99233.97
2023-03-01T02:57:29.753Z,99237.78
2023-03-01T03:00:40.979Z,99237.78
2023-03-01T03:03:44.045Z,99220.09
2023-03-01T03:06:46.931Z,99228.91
2023-03-01T03:09:49.533Z,99225.63
2023-03-01T03:12:53.301Z,99225.75
2023-03-01T03:15:58.376Z,99220.75
2023-03-01T03:19:06.023Z,99219.47
2023-03-01T03:22:09.949Z,99213.69
2023-03-01T03:25:12.753Z,99208.56
2023-03-01T03:28:16.842Z,99218.59
2023-03-01T03:31:21.244Z,99211.00
2023-03-01T03:34:24.273Z,99216.47
2023-03-01T03:37:52.794Z,99204.47
2023-03-01T03:41:03.274Z,99209.56
2023-03-01T03:44:06.157Z,99214.16
2023-03-01T03:47:10.134Z,99216.84
2023-03-01T03:50:14.000Z,99218.81
2023-03-01T03:53:16.419Z,99206.53
2023-03-01T03:56:19.042Z,99204.66
2023-03-01T03:59:21.691Z,99196.66
2023-03-01T04:02:27.347Z,99195.50
2023-03-01T04:05:30.550Z,99193.72
2023-03-01T04:08:33.495Z,99185.47
2023-03-01T04:11:36.180Z,99185.47
2023-03-01T04:14:38.924Z,99182.84
2023-03-01T04:17:44.011Z,99191.75
2023-03-01T04:20:47.649Z,99183.91
2023-03-01T04:23:53.488Z,99176.06
2023-03-01T04:26:56.172Z,99175.78
2023-03-01T04:29:58.751Z,99173.81
2023-03-01T04:33:03.757Z,99176.06
2023-03-01T04:36:09.730Z,99181.06
2023-03-01T04:39:14.100Z,99174.94
2023-03-01T04:42:17.699Z,99182.25
2023-03-01T04:45:20.601Z,99177.19
2023-03-01T04:48:24.716Z,99175.38
2023-03-01T04:51:27.518Z,99170.28
2023-03-01T04:54:30.387Z,99172.16
2023-03-01T04:57:33.135Z,99169.56
2023-03-01T05:00:35.825Z,99174.19
2023-03-01T05:03:40.764Z,99171.13
2023-03-01T05:06:44.681Z,99170.38
2023-03-01T05:09:47.817Z,99174.53
2023-03-01T05:12:50.435Z,99178.25
2023-03-01T05:15:57.920Z,99170.94
2023-03-01T05:19:02.280Z,99176.44
2023-03-01T05:22:05.855Z,99167.34
2023-03-01T05:25:09.331Z,99157.97
2023-03-01T05:28:13.738Z,99155.34
2023-03-01T05:31:16.768Z,99164.78
2023-03-01T05:34:23.783Z,99167.22
2023-03-01T05:37:26.605Z,99167.75
2023-03-01T05:40:30.308Z,99172.13
2023-03-01T05:43:34.890Z,99166.88
2023-03-01T05:46:37.606Z,99169.06
2023-03-01T05:49:41.875Z,99175.31
2023-03-01T05:52:44.429Z,99163.44
2023-03-01T05:55:48.438Z,99156.66
2023-03-01T05:58:51.395Z,99158.59
2023-03-01T06:01:54.509Z,99160.22
2023-03-01T06:04:59.871Z,99150.50
2023-03-01T06:08:03.258Z,99157.53
2023-03-01T06:11:06.364Z,99154.03
2023-03-01T06:14:11.451Z,99150.81
2023-03-01T06:17:14.248Z,99146.50
2023-03-01T06:20:20.267Z,99149.78
2023-03-01T06:23:22.922Z,99160.09
2023-03-01T06:26:25.727Z,99156.38
2023-03-01T06:29:28.562Z,99149.38
2023-03-01T06:32:32.085Z,99153.88
2023-03-01T06:35:36.157Z,99164.66
2023-03-01T06:38:38.836Z,99160.16
2023-03-01T06:41:42.039Z,99165.41
2023-03-01T06:44:46.819Z,99165.69
2023-03-01T06:47:50.051Z,99167.88
2023-03-01T06:50:54.168Z,99168.81
2023-03-01T06:53:56.822Z,99169.34
2023-03-01T06:56:59.440Z,99165.13
2023-03-01T07:00:02.462Z,99155.47
2023-03-01T07:03:05.255Z,99163.41
2023-03-01T07:06:09.263Z,99165.94
2023-03-01T07:09:11.804Z,99160.91
2023-03-01T07:12:14.670Z,99162.09
2023-03-01T07:15:17.925Z,99161.66
2023-03-01T07:18:20.598Z,99156.19
2023-03-01T07:21:24.567Z,99156.69
2023-03-01T07:24:27.375Z,99149.41
2023-03-01T07:27:30.088Z,99146.47
2023-03-01T07:30:33.072Z,99147.06
2023-03-01T07:33:35.662Z,99138.72
2023-03-01T07:36:40.505Z,99137.63
2023-03-01T07:39:43.284Z,99133.84
2023-03-01T07:42:45.911Z,99134.00
2023-03-01T07:45:48.591Z,99124.91
2023-03-01T07:48:51.223Z,99126.28
2023-03-01T07:51:55.390Z,99126.66
2023-03-01T07:54:58.382Z,99120.56
2023-03-01T07:58:01.055Z,99118.06
2023-03-01T08:04:31.409Z,99123.56
2023-03-01T08:07:35.518Z,99116.66
2023-03-01T08:10:38.213Z,99115.91
2023-03-01T08:13:40.903Z,99112.00
2023-03-01T08:16:43.832Z,99108.78
2023-03-01T08:19:46.840Z,99110.03
2023-03-01T08:22:50.842Z,99110.56
2023-03-01T08:25:53.957Z,99112.69
2023-03-01T08:28:56.618Z,99110.66
2023-03-01T08:31:59.478Z,99109.44
2023-03-01T08:35:02.284Z,99103.19
2023-03-01T08:38:06.253Z,99095.19
2023-03-01T08:41:08.717Z,99104.38
2023-03-01T08:44:11.898Z,99109.25
2023-03-01T08:47:14.507Z,99102.25
2023-03-01T08:50:17.733Z,99092.56
2023-03-01T08:53:21.733Z,99096.31
2023-03-01T08:56:24.303Z,99091.56
2023-03-01T08:59:27.795Z,99087.34
2023-03-01T09:02:30.561Z,99087.97
2023-03-01T09:05:33.422Z,99083.19
2023-03-01T09:08:38.096Z,99080.91
2023-03-01T09:11:40.683Z,99083.22
2023-03-01T09:14:43.312Z,99078.72
2023-03-01T09:17:46.114Z,99071.19
2023-03-01T09:20:48.704Z,99063.53
2023-03-01T09:23:52.811Z,99052.88
2023-03-01T09:26:56.395Z,99052.19
2023-03-01T09:29:59.020Z,99047.41
2023-03-01T09:33:01.922Z,99050.66
2023-03-01T09:36:06.355Z,99052.81
2023-03-01T09:39:10.477Z,99046.91
2023-03-01T09:42:14.410Z,99047.75
2023-03-01T09:45:18.475Z,99051.00
2023-03-01T09:48:24.529Z,99056.41
2023-03-01T09:51:34.235Z,99046.38
2023-03-01T09:54:38.291Z,99046.63
2023-03-01T09:57:48.481Z,99034.72
2023-03-01T10:00:52.113Z,99031.97
2023-03-01T10:04:05.813Z,99033.56
2023-03-01T10:07:18.253Z,99027.09
2023-03-01T10:10:29.452Z,99018.88
2023-03-01T10:13:39.989Z,99018.06
2023-03-01T10:16:46.071Z,99013.06
2023-03-01T10:19:49.434Z,98997.56
2023-03-01T10:22:53.634Z,98996.63
2023-03-01T10:26:07.381Z,98997.38
2023-03-01T10:29:11.692Z,98992.06
2023-03-01T10:32:14.504Z,98980.88
2023-03-01T10:35:19.459Z,98981.31
2023-03-01T10:38:22.644Z,98987.63
2023-03-01T10:41:28.213Z,98971.81
2023-03-01T10:44:45.883Z,98978.44
2023-03-01T10:47:48.633Z,98979.97
2023-03-01T10:50:52.642Z,98983.66
2023-03-01T10:53:55.243Z,98975.56
2023-03-01T10:57:01.595Z,98963.50
2023-03-01T11:00:23.711Z,98964.19
2023-03-01T11:03:28.455Z,98963.75
2023-03-01T11:06:31.088Z,98956.97
2023-03-01T11:09:39.515Z,98943.59
2023-03-01T11:12:43.567Z,98938.31
2023-03-01T11:16:00.724Z,98933.59
2023-03-01T11:19:17.647Z,98938.03
2023-03-01T11:22:22.535Z,98933.97
2023-03-01T11:25:29.013Z,98924.19
2023-03-01T11:28:33.066Z,98923.09
2023-03-01T11:31:39.077Z,98913.91
2023-03-01T11:34:46.158Z,98905.22
2023-03-01T11:38:00.134Z,98902.00
2023-03-01T11:41:05.162Z,98893.66
2023-03-01T11:44:13.795Z,98891.94
2023-03-01T11:47:25.280Z,98894.97
2023-03-01T11:50:31.833Z,98896.50
2023-03-01T11:53:52.644Z,98878.25
2023-03-01T11:56:58.367Z,98880.28
2023-03-01T12:00:20.262Z,98870.84
2023-03-01T12:03:28.663Z,98861.56
2023-03-01T12:06:38.702Z,98853.69
2023-03-01T12:09:52.769Z,98861.88
2023-03-01T12:13:28.284Z,98841.44
2023-03-01T12:16:42.925Z,98843.03
2023-03-01T12:19:58.709Z,98829.50
2023-03-01T12:23:21.107Z,98820.63
2023-03-01T12:26:29.958Z,98815.25
2023-03-01T12:29:35.793Z,98800.25
2023-03-01T12:32:49.603Z,98801.81
2023-03-01T12:36:16.281Z,98806.31
2023-03-01T12:39:34.428Z,98804.63
2023-03-01T12:42:48.485Z,98792.06
2023-03-01T12:45:59.869Z,98787.91
2023-03-01T12:49:11.149Z,98777.50
2023-03-01T12:52:17.465Z,98772.28
2023-03-01T12:55:30.230Z,98760.66
2023-03-01T12:58:48.689Z,98761.66
2023-03-01T13:01:58.738Z,98760.44
2023-03-01T13:05:09.558Z,98746.75
2023-03-01T13:08:18.499Z,98756.00
2023-03-01T13:11:23.208Z,98758.56
2023-03-01T13:14:48.275Z,98748.03
2023-03-01T13:17:52.513Z,98756.28
2023-03-01T13:20:58.430Z,98743.22
2023-03-01T13:24:01.067Z,98753.13
2023-03-01T13:27:25.926Z,98746.19
2023-03-01T13:30:44.019Z,98743.72
2023-03-01T13:33:48.340Z,98741.44
2023-03-01T13:36:52.522Z,98735.81
2023-03-01T13:39:55.228Z,98738.56
2023-03-01T13:43:05.582Z,98730.16
2023-03-01T13:46:15.015Z,98714.31
2023-03-01T13:49:19.672Z,98721.81
2023-03-01T13:52:34.488Z,98729.53
2023-03-01T13:55:40.635Z,98735.22
2023-03-01T13:58:49.745Z,98734.34
2023-03-01T14:01:54.757Z,98726.19
2023-03-01T14:05:02.082Z,98728.06
2023-03-01T14:08:06.912Z,98722.00
2023-03-01T14:11:34.588Z,98712.16
2023-03-01T14:14:44.758Z,98715.75
2023-03-01T14:17:53.159Z,98721.78
2023-03-01T14:20:55.917Z,98722.53
2023-03-01T14:24:00.569Z,98724.25
2023-03-01T14:27:03.674Z,98728.97
2023-03-01T14:30:13.617Z,98729.56
2023-03-01T14:33:25.733Z,98719.78
2023-03-01T14:36:29.756Z,98727.34
2023-03-01T14:39:34.328Z,98729.84
2023-03-01T14:42:38.489Z,98730.59
2023-03-01T14:45:41.135Z,98736.47
2023-03-01T14:48:43.785Z,98741.03
2023-03-01T14:51:53.566Z,98745.22
2023-03-01T14:54:57.585Z,98737.97
2023-03-01T14:58:03.130Z,98737.94
2023-03-01T15:01:07.348Z,98736.16
2023-03-01T15:04:13.636Z,98735.09
2023-03-01T15:07:16.667Z,98738.19
2023-03-01T15:10:23.154Z,98744.69
2023-03-01T15:13:27.376Z,98741.91
2023-03-01T15:16:32.526Z,98734.50
2023-03-01T15:19:35.466Z,98741.56
2023-03-01T15:22:38.118Z,98732.91
2023-03-01T15:25:46.870Z,98729.72
2023-03-01T15:28:52.024Z,98729.00
2023-03-01T15:31:59.821Z,98732.22
2023-03-01T15:35:11.436Z,98736.50
2023-03-01T15:38:27.966Z,98723.38
2023-03-01T15:41:33.279Z,98721.91
2023-03-01T15:44:43.829Z,98716.84
2023-03-01T15:47:51.059Z,98721.84
2023-03-01T15:50:56.743Z,98711.91
2023-03-01T15:54:01.993Z,98713.94
2023-03-01T15:57:05.963Z,98709.81
2023-03-01T16:00:12.554Z,98708.63
2023-03-01T16:03:15.187Z,98703.91
2023-03-01T16:06:17.801Z,98693.41
2023-03-01T16:09:20.580Z,98690.56
2023-03-01T16:12:25.205Z,98692.28
2023-03-01T16:15:31.946Z,98701.94
2023-03-01T16:18:35.500Z,98693.53
2023-03-01T16:21:38.732Z,98694.53
2023-03-01T16:24:41.894Z,98691.31
2023-03-01T16:27:46.566Z,98689.47
2023-03-01T16:30:50.326Z,98702.47
2023-03-01T16:33:54.999Z,98709.16
2023-03-01T16:36:57.439Z,98694.59
2023-03-01T16:40:00.294Z,98699.84
2023-03-01T16:43:04.471Z,98703.97
2023-03-01T16:46:12.477Z,98712.97
2023-03-01T16:49:15.274Z,98714.97
2023-03-01T16:52:22.868Z,98715.34
2023-03-01T16:55:25.642Z,98729.41
2023-03-01T16:58:29.721Z,98722.50
2023-03-01T17:01:38.469Z,98735.50
2023-03-01T17:04:41.503Z,98729.28
2023-03-01T17:07:44.375Z,98742.78
2023-03-01T17:10:46.971Z,98745.84
2023-03-01T17:13:50.971Z,98749.25
2023-03-01T17:16:54.001Z,98752.09
2023-03-01T17:19:57.446Z,98750.59
2023-03-01T17:23:00.074Z,98757.63
2023-03-01T17:26:03.026Z,98758.28
2023-03-01T17:29:07.349Z,98769.50
2023-03-01T17:32:10.961Z,98766.81
2023-03-01T17:35:13.878Z,98776.66
2023-03-01T17:38:17.128Z,98774.53
2023-03-01T17:41:20.838Z,98772.94
2023-03-01T17:44:25.208Z,98783.75
2023-03-01T17:47:28.118Z,98781.09
2023-03-01T17:50:30.859Z,98782.19
2023-03-01T17:53:33.585Z,98789.00
2023-03-01T17:56:38.757Z,98781.19
2023-03-01T17:59:42.823Z,98775.31
2023-03-01T18:02:46.133Z,98782.44
2023-03-01T18:05:49.307Z,98786.81
2023-03-01T18:08:53.563Z,98781.50
2023-03-01T18:11:56.303Z,98783.97
2023-03-01T18:15:00.307Z,98775.09
2023-03-01T18:18:02.945Z,98782.22
2023-03-01T18:21:06.341Z,98780.09
2023-03-01T18:24:09.092Z,98779.53
2023-03-01T18:27:12.074Z,98769.31
2023-03-01T18:30:17.194Z,98779.06
2023-03-01T18:33:19.824Z,98779.91
2023-03-01T18:36:24.361Z,98785.59
2023-03-01T18:39:27.006Z,98781.84
2023-03-01T18:42:29.658Z,98780.78
2023-03-01T18:45:33.736Z,98782.38
2023-03-01T18:48:37.124Z,98793.47
2023-03-01T18:51:40.482Z,98786.72
2023-03-01T18:54:43.184Z,98774.31
2023-03-01T18:57:45.810Z,98770.25
2023-03-01T19:00:49.820Z,98769.16
2023-03-01T19:03:54.737Z,98769.44
2023-03-01T19:06:57.896Z,98768.88
2023-03-01T19:10:00.769Z,98761.88
2023-03-01T19:13:03.533Z,98759.72
2023-03-01T19:16:09.802Z,98753.78
2023-03-01T19:19:13.266Z,98762.41
2023-03-01T19:22:16.105Z,98752.19
2023-03-01T19:25:19.400Z,98750.56
2023-03-01T19:28:22.058Z,98753.25
2023-03-01T19:31:28.591Z,98748.91
2023-03-01T19:34:31.931Z,98746.22
2023-03-01T19:37:35.529Z,98747.81
2023-03-01T19:40:38.489Z,98753.22
2023-03-01T19:43:41.722Z,98753.78
2023-03-01T19:46:45.977Z,98754.03
2023-03-01T19:49:48.715Z,98750.78
2023-03-01T19:52:52.600Z,98746.22
2023-03-01T19:55:59.227Z,98755.91
2023-03-01T19:59:04.701Z,98751.00
2023-03-01T20:02:10.438Z,98750.72
2023-03-01T20:05:13.323Z,98748.34
2023-03-01T20:08:15.995Z,98742.94
2023-03-01T20:11:20.305Z,98759.19
2023-03-01T20:14:24.431Z,98762.69
2023-03-01T20:17:28.601Z,98765.41
2023-03-01T20:20:31.371Z,98764.84
2023-03-01T20:23:34.009Z,98763.75
2023-03-01T20:26:37.548Z,98767.28
2023-03-01T20:29:40.381Z,98758.63
2023-03-01T20:32:45.026Z,98757.25
2023-03-01T20:35:48.038Z,98758.06
2023-03-01T20:38:50.779Z,98760.53
2023-03-01T20:41:54.386Z,98758.34
2023-03-01T20:44:57.330Z,98749.19
2023-03-01T20:48:17.385Z,98744.31
2023-03-01T20:51:20.494Z,98739.75
2023-03-01T20:54:23.113Z,98744.59
2023-03-01T20:57:25.939Z,98750.22
2023-03-01T21:00:29.360Z,98737.53
2023-03-01T21:03:38.797Z,98732.16
2023-03-01T21:06:46.139Z,98737.03
2023-03-01T21:09:49.106Z,98741.91
2023-03-01T21:12:51.806Z,98739.72
2023-03-01T21:15:54.838Z,98739.72
2023-03-01T21:19:01.555Z,98733.78
2023-03-01T21:22:06.803Z,98741.06
2023-03-01T21:25:09.851Z,98738.69
2023-03-01T21:28:12.466Z,98732.19
2023-03-01T21:31:17.062Z,98730.56
2023-03-01T21:34:21.108Z,98734.59
2023-03-01T21:37:27.828Z,98746.19
2023-03-01T21:40:30.449Z,98733.72
2023-03-01T21:43:33.133Z,98726.72
2023-03-01T21:46:37.902Z,98726.41
2023-03-01T21:49:41.897Z,98729.13
2023-03-01T21:52:44.703Z,98724.25
2023-03-01T21:55:48.043Z,98727.78
2023-03-01T21:58:50.873Z,98717.25
2023-03-01T22:01:53.622Z,98713.50
2023-03-01T22:04:57.653Z,98703.97
2023-03-01T22:08:00.329Z,98713.00
2023-03-01T22:11:03.511Z,98707.53
2023-03-01T22:14:06.704Z,98709.13
2023-03-01T22:17:09.262Z,98710.72
2023-03-01T22:20:14.327Z,98708.06
2023-03-01T22:23:16.925Z,98710.28
2023-03-01T22:26:24.367Z,98714.59
2023-03-01T22:29:28.942Z,98706.00
2023-03-01T22:32:32.046Z,98709.53
2023-03-01T22:35:36.098Z,98707.34
2023-03-01T22:38:39.442Z,98714.66
2023-03-01T22:41:45.663Z,98717.66
2023-03-01T22:44:48.361Z,98715.84
2023-03-01T22:47:51.159Z,98711.75
2023-03-01T22:50:55.179Z,98706.63
2023-03-01T22:54:05.139Z,98701.78
2023-03-01T22:57:09.052Z,98700.63
2023-03-01T23:00:13.269Z,98694.38
2023-03-01T23:03:17.378Z,98690.88
2023-03-01T23:06:22.894Z,98700.00
2023-03-01T23:09:27.477Z,98693.81
2023-03-01T23:12:30.141Z,98694.84
2023-03-01T23:15:32.941Z,98699.41
2023-03-01T23:18:35.653Z,98697.06
2023-03-01T23:21:44.156Z,98697.03
2023-03-01T23:24:47.646Z,98692.88
2023-03-01T23:27:50.247Z,98699.53
2023-03-01T23:30:57.728Z,98693.22
2023-03-01T23:34:00.471Z,98691.06
2023-03-01T23:37:05.092Z,98695.91
2023-03-01T23:40:09.001Z,98695.34
2023-03-01T23:43:11.464Z,98684.88
2023-03-01T23:46:14.468Z,98688.34
2023-03-01T23:49:19.463Z,98682.66
2023-03-01T23:52:23.585Z,98681.25
2023-03-01T23:55:27.126Z,98683.91
2023-03-01T23:58:30.101Z,98687.66
